Webcam

2019/10/23 01:20 EBBR 230120Z VRB02KT 9000 NSC 11/09 Q1020 NOSIG

Webcam

--- Refresh now ---